Αρχική σελίδα
METAR-TAF:

METAR-TAF

Αεροδρόμια :

Φουντσάλ, Μαδέρα, Πορτογαλία

γεωγραφικό πλάτος: 32-41-52N, γεωγραφικό μήκος: 016-46-28W, υψόμετρο: 59 μ

Παρών καιρός

Η αναφορά έγινε 36 λεπτά πριν, στις 23:30 UTC
Άνεμος 13 kt από Β/BA, μεταβλητός μεταξύ Β/BΔ και BA
Θερμοκρασία 22°C
Υγρασία 73%
Πίεση 1023 hPa
Ορατότητα 10 χλμ και άνω
Λίγα νέφη σε ύψος 1500 πόδια

METAR: LPMA 162330Z 02013KT 340V050 9999 FEW015 22/17 Q1023

Χρόνος: 01:06 (00:06 UTC)

Πρόγνωση Καιρού

Η αναφορά έγινε 1 ώρα και 6 λεπτά πριν, στις 23:00 UTC
Η πρόγνωση ισχύει από τις 17 στις 00 UTC έως τις 17 στις 24 UTC
Άνεμος 12 kt από Β/BA
Ορατότητα 10 χλμ και άνω
Διάσπαρτα νέφη σε ύψος 1500 πόδια
Προσωρινά
από 17 στις 00 UTC έως τις 17 στις 24 UTC
Άνεμος 15 kt από Β με ριπές μέχρι 25 kt

TAF: LPMA 162300Z 1700/1724 02012KT 9999 SCT015 TEMPO 1700/1724 01015G25KT

Μετεωρολογικές αναφορές και προγνώσεις για περισσότερα από 4000 αεροδρόμια (δελτία METAR και TAF).

Οι διαθέσιμοι σταθμοί απεικονίζονται στο χάρτη με κίτρινες και κόκκινες κουκκίδες.

Μετακινήστε το ποντίκι πάνω από τις κουκκίδες για να δείτε το όνομα του σταθμού.

Στη συνέχεια, κάντε κλικ για να δείτε τις μετεωρολογικές αναφορές και τις προγνώσεις καιρού.

Για να αλλάξετε το χάρτη: κάντε κλικ στα πράσινα κουμπιά με τον μαύρο σταυρό για να ζουμάρετε, στο πράσινο κουμπί με την παύλα για να αφαιρέσετε το ζουμ ή στα πράσινα βέλη για να αντιπαραβάλλετε χάρτες.


METAR-TAF: